sensor_id;sensor_type;location;lat;lon;timestamp;P1;durP1;ratioP1;P2;durP2;ratioP2
77495;SDS011;66600;48.378;9.948;2023-10-19T00:00:49;58.60;;;33.67;;
77495;SDS011;66600;48.378;9.948;2023-10-19T00:01:21;58.50;;;35.55;;
77495;SDS011;66600;48.378;9.948;2023-10-19T00:01:57;59.85;;;35.35;;
77495;SDS011;66600;48.378;9.948;2023-10-19T00:02:30;58.67;;;35.20;;
77495;SDS011;66600;48.378;9.948;2023-10-19T00:03:01;64.88;;;36.58;;
77495;SDS011;66600;48.378;9.948;2023-10-19T00:03:32;64.47;;;37.45;;
77495;SDS011;66600;48.378;9.948;2023-10-19T00:04:03;61.83;;;38.70;;
77495;SDS011;66600;48.378;9.948;2023-10-19T00:04:36;62.22;;;37.28;;
77495;SDS011;66600;48.378;9.948;2023-10-19T00:05:06;69.35;;;38.42;;
77495;SDS011;66600;48.378;9.948;2023-10-19T00:05:43;62.47;;;36.60;;
77495;SDS011;66600;48.378;9.948;2023-10-19T00:06:17;60.30;;;36.03;;
77495;SDS011;66600;48.378;9.948;2023-10-19T00:06:48;61.65;;;37.38;;
77495;SDS011;66600;48.378;9.948;2023-10-19T00:07:21;63.58;;;36.85;;
77495;SDS011;66600;48.378;9.948;2023-10-19T00:07:51;65.25;;;38.42;;
77495;SDS011;66600;48.378;9.948;2023-10-19T00:08:23;60.65;;;37.00;;
77495;SDS011;66600;48.378;9.948;2023-10-19T00:08:54;62.63;;;37.13;;
77495;SDS011;66600;48.378;9.948;2023-10-19T00:09:24;62.95;;;36.90;;
77495;SDS011;66600;48.378;9.948;2023-10-19T00:09:56;63.20;;;37.13;;
77495;SDS011;66600;48.378;9.948;2023-10-19T00:10:26;63.13;;;36.30;;
77495;SDS011;66600;48.378;9.948;2023-10-19T00:11:03;59.50;;;36.33;;
77495;SDS011;66600;48.378;9.948;2023-10-19T00:11:40;54.90;;;34.38;;
77495;SDS011;66600;48.378;9.948;2023-10-19T00:12:10;61.13;;;37.63;;
77495;SDS011;66600;48.378;9.948;2023-10-19T00:12:41;62.00;;;35.40;;
77495;SDS011;66600;48.378;9.948;2023-10-19T00:13:14;57.42;;;35.17;;
77495;SDS011;66600;48.378;9.948;2023-10-19T00:13:44;58.38;;;34.20;;
77495;SDS011;66600;48.378;9.948;2023-10-19T00:14:15;56.10;;;35.30;;
77495;SDS011;66600;48.378;9.948;2023-10-19T00:14:46;56.70;;;35.13;;
77495;SDS011;66600;48.378;9.948;2023-10-19T00:15:16;58.08;;;34.75;;
77495;SDS011;66600;48.378;9.948;2023-10-19T00:15:52;53.80;;;33.10;;
77495;SDS011;66600;48.378;9.948;2023-10-19T00:16:23;56.67;;;33.83;;
77495;SDS011;66600;48.378;9.948;2023-10-19T00:16:58;51.00;;;32.67;;
77495;SDS011;66600;48.378;9.948;2023-10-19T00:17:35;53.13;;;31.83;;
77495;SDS011;66600;48.378;9.948;2023-10-19T00:18:08;54.65;;;32.65;;
77495;SDS011;66600;48.378;9.948;2023-10-19T00:18:47;49.88;;;31.88;;
77495;SDS011;66600;48.378;9.948;2023-10-19T00:19:18;50.88;;;31.70;;
77495;SDS011;66600;48.378;9.948;2023-10-19T00:19:52;49.38;;;30.23;;
77495;SDS011;66600;48.378;9.948;2023-10-19T00:20:45;48.08;;;29.73;;
77495;SDS011;66600;48.378;9.948;2023-10-19T00:21:22;39.92;;;27.15;;
77495;SDS011;66600;48.378;9.948;2023-10-19T00:21:55;45.30;;;29.20;;
77495;SDS011;66600;48.378;9.948;2023-10-19T00:22:31;45.13;;;29.02;;
77495;SDS011;66600;48.378;9.948;2023-10-19T00:23:06;44.30;;;28.90;;
77495;SDS011;66600;48.378;9.948;2023-10-19T00:23:36;46.55;;;29.75;;
77495;SDS011;66600;48.378;9.948;2023-10-19T00:24:09;47.20;;;29.10;;
77495;SDS011;66600;48.378;9.948;2023-10-19T00:24:40;45.05;;;29.48;;
77495;SDS011;66600;48.378;9.948;2023-10-19T00:25:11;44.60;;;28.45;;
77495;SDS011;66600;48.378;9.948;2023-10-19T00:25:43;45.58;;;29.05;;
77495;SDS011;66600;48.378;9.948;2023-10-19T00:26:21;42.97;;;28.73;;
77495;SDS011;66600;48.378;9.948;2023-10-19T00:26:55;46.63;;;29.45;;
77495;SDS011;66600;48.378;9.948;2023-10-19T00:27:25;42.45;;;28.52;;
77495;SDS011;66600;48.378;9.948;2023-10-19T00:27:57;45.03;;;29.80;;
77495;SDS011;66600;48.378;9.948;2023-10-19T00:28:30;55.78;;;30.67;;
77495;SDS011;66600;48.378;9.948;2023-10-19T00:29:05;43.53;;;29.33;;
77495;SDS011;66600;48.378;9.948;2023-10-19T00:29:55;46.50;;;28.88;;
77495;SDS011;66600;48.378;9.948;2023-10-19T00:30:36;45.47;;;29.55;;
77495;SDS011;66600;48.378;9.948;2023-10-19T00:31:06;45.58;;;29.38;;
77495;SDS011;66600;48.378;9.948;2023-10-19T00:31:41;43.10;;;29.15;;
77495;SDS011;66600;48.378;9.948;2023-10-19T00:32:12;46.13;;;29.05;;
77495;SDS011;66600;48.378;9.948;2023-10-19T00:32:44;44.88;;;29.05;;
77495;SDS011;66600;48.378;9.948;2023-10-19T00:33:15;44.25;;;29.02;;
77495;SDS011;66600;48.378;9.948;2023-10-19T00:33:48;45.88;;;29.65;;
77495;SDS011;66600;48.378;9.948;2023-10-19T00:34:24;46.17;;;29.27;;
77495;SDS011;66600;48.378;9.948;2023-10-19T00:34:55;44.88;;;28.92;;
77495;SDS011;66600;48.378;9.948;2023-10-19T00:35:25;43.67;;;28.58;;
77495;SDS011;66600;48.378;9.948;2023-10-19T00:36:08;43.50;;;28.40;;
77495;SDS011;66600;48.378;9.948;2023-10-19T00:36:39;49.97;;;29.88;;
77495;SDS011;66600;48.378;9.948;2023-10-19T00:37:10;42.45;;;29.27;;
77495;SDS011;66600;48.378;9.948;2023-10-19T00:37:40;43.92;;;27.70;;
77495;SDS011;66600;48.378;9.948;2023-10-19T00:38:13;42.90;;;29.13;;
77495;SDS011;66600;48.378;9.948;2023-10-19T00:39:02;42.95;;;28.73;;
77495;SDS011;66600;48.378;9.948;2023-10-19T00:39:44;44.95;;;28.60;;
77495;SDS011;66600;48.378;9.948;2023-10-19T00:40:18;40.65;;;26.55;;
77495;SDS011;66600;48.378;9.948;2023-10-19T00:41:05;42.75;;;28.52;;
77495;SDS011;66600;48.378;9.948;2023-10-19T00:41:41;45.63;;;27.95;;
77495;SDS011;66600;48.378;9.948;2023-10-19T00:42:13;44.75;;;28.90;;
77495;SDS011;66600;48.378;9.948;2023-10-19T00:42:45;46.60;;;29.13;;
77495;SDS011;66600;48.378;9.948;2023-10-19T00:43:25;45.17;;;29.30;;
77495;SDS011;66600;48.378;9.948;2023-10-19T00:43:58;46.22;;;29.48;;
77495;SDS011;66600;48.378;9.948;2023-10-19T00:44:41;44.47;;;29.60;;
77495;SDS011;66600;48.378;9.948;2023-10-19T00:45:19;45.28;;;29.63;;
77495;SDS011;66600;48.378;9.948;2023-10-19T00:45:56;47.53;;;30.50;;
77495;SDS011;66600;48.378;9.948;2023-10-19T00:46:26;47.53;;;30.63;;
77495;SDS011;66600;48.378;9.948;2023-10-19T00:47:02;49.25;;;30.80;;
77495;SDS011;66600;48.378;9.948;2023-10-19T00:47:43;48.90;;;30.50;;
77495;SDS011;66600;48.378;9.948;2023-10-19T00:48:13;50.08;;;32.28;;
77495;SDS011;66600;48.378;9.948;2023-10-19T00:49:20;54.88;;;32.25;;
77495;SDS011;66600;48.378;9.948;2023-10-19T00:49:53;50.80;;;32.92;;
77495;SDS011;66600;48.378;9.948;2023-10-19T00:50:24;53.88;;;32.42;;
77495;SDS011;66600;48.378;9.948;2023-10-19T00:50:58;56.08;;;33.47;;
77495;SDS011;66600;48.378;9.948;2023-10-19T00:51:40;51.25;;;32.15;;
77495;SDS011;66600;48.378;9.948;2023-10-19T00:52:24;54.47;;;33.72;;
77495;SDS011;66600;48.378;9.948;2023-10-19T00:52:54;56.65;;;33.28;;
77495;SDS011;66600;48.378;9.948;2023-10-19T00:53:28;52.25;;;32.70;;
77495;SDS011;66600;48.378;9.948;2023-10-19T00:54:21;51.80;;;32.88;;
77495;SDS011;66600;48.378;9.948;2023-10-19T00:55:11;54.13;;;32.50;;
77495;SDS011;66600;48.378;9.948;2023-10-19T00:55:43;52.67;;;33.05;;
77495;SDS011;66600;48.378;9.948;2023-10-19T00:56:15;57.28;;;34.15;;
77495;SDS011;66600;48.378;9.948;2023-10-19T00:56:48;51.80;;;32.17;;
77495;SDS011;66600;48.378;9.948;2023-10-19T00:57:18;50.88;;;31.10;;
77495;SDS011;66600;48.378;9.948;2023-10-19T00:58:05;51.60;;;32.05;;
77495;SDS011;66600;48.378;9.948;2023-10-19T00:58:39;51.83;;;31.13;;
77495;SDS011;66600;48.378;9.948;2023-10-19T00:59:11;52.47;;;32.53;;
77495;SDS011;66600;48.378;9.948;2023-10-19T00:59:48;53.33;;;32.83;;
77495;SDS011;66600;48.378;9.948;2023-10-19T01:00:39;49.15;;;31.38;;
77495;SDS011;66600;48.378;9.948;2023-10-19T01:01:13;49.08;;;30.70;;
77495;SDS011;66600;48.378;9.948;2023-10-19T01:01:45;51.15;;;32.17;;
77495;SDS011;66600;48.378;9.948;2023-10-19T01:02:18;54.65;;;32.58;;
77495;SDS011;66600;48.378;9.948;2023-10-19T01:02:58;51.55;;;31.60;;
77495;SDS011;66600;48.378;9.948;2023-10-19T01:03:35;56.42;;;33.25;;
77495;SDS011;66600;48.378;9.948;2023-10-19T01:04:06;51.60;;;33.03;;
77495;SDS011;66600;48.378;9.948;2023-10-19T01:04:37;50.75;;;32.17;;
77495;SDS011;66600;48.378;9.948;2023-10-19T01:05:12;51.30;;;31.98;;
77495;SDS011;66600;48.378;9.948;2023-10-19T01:05:51;48.72;;;32.30;;
77495;SDS011;66600;48.378;9.948;2023-10-19T01:06:22;48.35;;;32.22;;
77495;SDS011;66600;48.378;9.948;2023-10-19T01:06:53;52.65;;;31.92;;
77495;SDS011;66600;48.378;9.948;2023-10-19T01:07:42;48.92;;;30.65;;
77495;SDS011;66600;48.378;9.948;2023-10-19T01:08:14;48.53;;;29.65;;
77495;SDS011;66600;48.378;9.948;2023-10-19T01:08:54;48.20;;;29.55;;
77495;SDS011;66600;48.378;9.948;2023-10-19T01:09:25;46.63;;;29.55;;
77495;SDS011;66600;48.378;9.948;2023-10-19T01:10:00;45.78;;;30.10;;
77495;SDS011;66600;48.378;9.948;2023-10-19T01:10:34;48.50;;;31.30;;
77495;SDS011;66600;48.378;9.948;2023-10-19T01:11:06;47.15;;;30.02;;
77495;SDS011;66600;48.378;9.948;2023-10-19T01:11:36;45.47;;;30.13;;
77495;SDS011;66600;48.378;9.948;2023-10-19T01:12:06;46.25;;;29.63;;
77495;SDS011;66600;48.378;9.948;2023-10-19T01:12:52;43.22;;;28.67;;
77495;SDS011;66600;48.378;9.948;2023-10-19T01:13:22;46.42;;;29.42;;
77495;SDS011;66600;48.378;9.948;2023-10-19T01:14:17;43.10;;;28.45;;
77495;SDS011;66600;48.378;9.948;2023-10-19T01:15:48;45.10;;;29.13;;
77495;SDS011;66600;48.378;9.948;2023-10-19T01:16:19;45.53;;;29.40;;
77495;SDS011;66600;48.378;9.948;2023-10-19T01:16:53;45.13;;;29.45;;
77495;SDS011;66600;48.378;9.948;2023-10-19T01:17:26;46.25;;;29.63;;
77495;SDS011;66600;48.378;9.948;2023-10-19T01:17:57;45.20;;;29.15;;
77495;SDS011;66600;48.378;9.948;2023-10-19T01:18:28;45.17;;;30.08;;
77495;SDS011;66600;48.378;9.948;2023-10-19T01:18:59;44.35;;;28.75;;
77495;SDS011;66600;48.378;9.948;2023-10-19T01:19:29;40.63;;;28.65;;
77495;SDS011;66600;48.378;9.948;2023-10-19T01:20:00;44.72;;;29.70;;
77495;SDS011;66600;48.378;9.948;2023-10-19T01:20:42;43.78;;;28.77;;
77495;SDS011;66600;48.378;9.948;2023-10-19T01:21:23;45.20;;;29.13;;
77495;SDS011;66600;48.378;9.948;2023-10-19T01:22:07;44.58;;;29.10;;
77495;SDS011;66600;48.378;9.948;2023-10-19T01:22:42;44.60;;;28.92;;
77495;SDS011;66600;48.378;9.948;2023-10-19T01:23:16;42.08;;;28.17;;
77495;SDS011;66600;48.378;9.948;2023-10-19T01:23:52;42.63;;;27.55;;
77495;SDS011;66600;48.378;9.948;2023-10-19T01:24:23;42.50;;;28.38;;
77495;SDS011;66600;48.378;9.948;2023-10-19T01:25:09;42.03;;;27.98;;
77495;SDS011;66600;48.378;9.948;2023-10-19T01:26:11;43.60;;;29.23;;
77495;SDS011;66600;48.378;9.948;2023-10-19T01:26:45;43.53;;;27.70;;
77495;SDS011;66600;48.378;9.948;2023-10-19T01:27:17;41.83;;;27.67;;
77495;SDS011;66600;48.378;9.948;2023-10-19T01:27:47;38.25;;;26.77;;
77495;SDS011;66600;48.378;9.948;2023-10-19T01:28:18;45.90;;;27.63;;
77495;SDS011;66600;48.378;9.948;2023-10-19T01:28:48;42.53;;;29.02;;
77495;SDS011;66600;48.378;9.948;2023-10-19T01:29:24;43.95;;;28.98;;
77495;SDS011;66600;48.378;9.948;2023-10-19T01:29:57;42.75;;;29.05;;
77495;SDS011;66600;48.378;9.948;2023-10-19T01:30:31;43.45;;;29.77;;
77495;SDS011;66600;48.378;9.948;2023-10-19T01:31:03;45.90;;;30.23;;
77495;SDS011;66600;48.378;9.948;2023-10-19T01:31:36;43.00;;;29.13;;
77495;SDS011;66600;48.378;9.948;2023-10-19T01:32:21;46.08;;;29.90;;
77495;SDS011;66600;48.378;9.948;2023-10-19T01:32:52;46.20;;;29.85;;
77495;SDS011;66600;48.378;9.948;2023-10-19T01:33:23;47.63;;;30.27;;
77495;SDS011;66600;48.378;9.948;2023-10-19T01:33:54;45.90;;;30.15;;
77495;SDS011;66600;48.378;9.948;2023-10-19T01:34:26;43.28;;;30.05;;
77495;SDS011;66600;48.378;9.948;2023-10-19T01:34:57;45.17;;;30.40;;
77495;SDS011;66600;48.378;9.948;2023-10-19T01:35:27;46.67;;;29.80;;
77495;SDS011;66600;48.378;9.948;2023-10-19T01:36:17;43.33;;;28.85;;
77495;SDS011;66600;48.378;9.948;2023-10-19T01:36:54;49.67;;;31.00;;
77495;SDS011;66600;48.378;9.948;2023-10-19T01:37:25;45.80;;;30.17;;
77495;SDS011;66600;48.378;9.948;2023-10-19T01:37:56;48.22;;;31.20;;
77495;SDS011;66600;48.378;9.948;2023-10-19T01:38:27;46.83;;;30.42;;
77495;SDS011;66600;48.378;9.948;2023-10-19T01:39:01;45.88;;;29.58;;
77495;SDS011;66600;48.378;9.948;2023-10-19T01:39:31;44.80;;;30.40;;
77495;SDS011;66600;48.378;9.948;2023-10-19T01:40:05;46.47;;;29.63;;
77495;SDS011;66600;48.378;9.948;2023-10-19T01:40:36;44.58;;;28.80;;
77495;SDS011;66600;48.378;9.948;2023-10-19T01:41:13;44.65;;;30.40;;
77495;SDS011;66600;48.378;9.948;2023-10-19T01:41:45;45.50;;;29.23;;
77495;SDS011;66600;48.378;9.948;2023-10-19T01:42:15;42.83;;;29.48;;
77495;SDS011;66600;48.378;9.948;2023-10-19T01:42:47;48.10;;;28.92;;
77495;SDS011;66600;48.378;9.948;2023-10-19T01:43:17;46.38;;;29.90;;
77495;SDS011;66600;48.378;9.948;2023-10-19T01:43:51;45.80;;;31.08;;
77495;SDS011;66600;48.378;9.948;2023-10-19T01:44:25;47.20;;;29.65;;
77495;SDS011;66600;48.378;9.948;2023-10-19T01:44:56;42.33;;;29.42;;
77495;SDS011;66600;48.378;9.948;2023-10-19T01:45:26;46.10;;;30.50;;
77495;SDS011;66600;48.378;9.948;2023-10-19T01:45:57;48.08;;;30.30;;
77495;SDS011;66600;48.378;9.948;2023-10-19T01:46:34;44.13;;;28.88;;
77495;SDS011;66600;48.378;9.948;2023-10-19T01:47:05;43.72;;;28.48;;
77495;SDS011;66600;48.378;9.948;2023-10-19T01:47:35;44.13;;;29.48;;
77495;SDS011;66600;48.378;9.948;2023-10-19T01:48:06;46.58;;;28.63;;
77495;SDS011;66600;48.378;9.948;2023-10-19T01:48:37;43.58;;;30.27;;
77495;SDS011;66600;48.378;9.948;2023-10-19T01:49:12;45.92;;;30.20;;
77495;SDS011;66600;48.378;9.948;2023-10-19T01:49:42;44.20;;;28.80;;
77495;SDS011;66600;48.378;9.948;2023-10-19T01:50:15;45.33;;;30.20;;
77495;SDS011;66600;48.378;9.948;2023-10-19T01:50:49;42.90;;;28.35;;
77495;SDS011;66600;48.378;9.948;2023-10-19T01:51:21;45.92;;;29.83;;
77495;SDS011;66600;48.378;9.948;2023-10-19T01:51:56;44.35;;;28.73;;
77495;SDS011;66600;48.378;9.948;2023-10-19T01:52:27;46.50;;;29.13;;
77495;SDS011;66600;48.378;9.948;2023-10-19T01:52:57;43.92;;;28.33;;
77495;SDS011;66600;48.378;9.948;2023-10-19T01:53:28;44.28;;;30.05;;
77495;SDS011;66600;48.378;9.948;2023-10-19T01:53:59;41.92;;;28.65;;
77495;SDS011;66600;48.378;9.948;2023-10-19T01:54:33;43.15;;;28.27;;
77495;SDS011;66600;48.378;9.948;2023-10-19T01:55:07;47.35;;;29.33;;
77495;SDS011;66600;48.378;9.948;2023-10-19T01:55:39;45.80;;;28.90;;
77495;SDS011;66600;48.378;9.948;2023-10-19T01:56:09;43.28;;;28.58;;
77495;SDS011;66600;48.378;9.948;2023-10-19T01:56:41;45.83;;;28.85;;
77495;SDS011;66600;48.378;9.948;2023-10-19T01:57:13;43.53;;;28.42;;
77495;SDS011;66600;48.378;9.948;2023-10-19T01:57:44;41.47;;;28.40;;
77495;SDS011;66600;48.378;9.948;2023-10-19T01:58:15;47.65;;;29.38;;
77495;SDS011;66600;48.378;9.948;2023-10-19T01:58:45;44.28;;;30.02;;
77495;SDS011;66600;48.378;9.948;2023-10-19T01:59:16;46.75;;;29.65;;
77495;SDS011;66600;48.378;9.948;2023-10-19T01:59:47;43.25;;;28.65;;
77495;SDS011;66600;48.378;9.948;2023-10-19T02:00:17;43.42;;;28.45;;
77495;SDS011;66600;48.378;9.948;2023-10-19T02:00:53;45.42;;;30.08;;
77495;SDS011;66600;48.378;9.948;2023-10-19T02:01:30;46.00;;;28.83;;
77495;SDS011;66600;48.378;9.948;2023-10-19T02:02:01;47.15;;;29.30;;
77495;SDS011;66600;48.378;9.948;2023-10-19T02:02:32;44.13;;;28.83;;
77495;SDS011;66600;48.378;9.948;2023-10-19T02:03:06;42.75;;;28.80;;
77495;SDS011;66600;48.378;9.948;2023-10-19T02:03:37;44.20;;;28.75;;
77495;SDS011;66600;48.378;9.948;2023-10-19T02:04:11;44.83;;;29.00;;
77495;SDS011;66600;48.378;9.948;2023-10-19T02:04:43;42.08;;;29.27;;
77495;SDS011;66600;48.378;9.948;2023-10-19T02:05:13;48.22;;;29.67;;
77495;SDS011;66600;48.378;9.948;2023-10-19T02:05:45;43.55;;;29.85;;
77495;SDS011;66600;48.378;9.948;2023-10-19T02:06:19;46.50;;;30.98;;
77495;SDS011;66600;48.378;9.948;2023-10-19T02:06:50;46.75;;;29.15;;
77495;SDS011;66600;48.378;9.948;2023-10-19T02:07:22;43.92;;;29.20;;
77495;SDS011;66600;48.378;9.948;2023-10-19T02:07:53;47.78;;;29.98;;
77495;SDS011;66600;48.378;9.948;2023-10-19T02:08:25;44.90;;;28.70;;
77495;SDS011;66600;48.378;9.948;2023-10-19T02:09:01;44.65;;;29.10;;
77495;SDS011;66600;48.378;9.948;2023-10-19T02:09:47;44.38;;;29.50;;
77495;SDS011;66600;48.378;9.948;2023-10-19T02:10:18;46.67;;;29.98;;
77495;SDS011;66600;48.378;9.948;2023-10-19T02:10:48;44.85;;;30.33;;
77495;SDS011;66600;48.378;9.948;2023-10-19T02:11:19;47.85;;;30.70;;
77495;SDS011;66600;48.378;9.948;2023-10-19T02:11:53;45.88;;;30.58;;
77495;SDS011;66600;48.378;9.948;2023-10-19T02:12:28;47.15;;;29.95;;
77495;SDS011;66600;48.378;9.948;2023-10-19T02:12:59;43.53;;;29.85;;
77495;SDS011;66600;48.378;9.948;2023-10-19T02:13:30;45.47;;;30.40;;
77495;SDS011;66600;48.378;9.948;2023-10-19T02:14:00;47.83;;;30.20;;
77495;SDS011;66600;48.378;9.948;2023-10-19T02:14:34;47.30;;;29.92;;
77495;SDS011;66600;48.378;9.948;2023-10-19T02:15:05;44.28;;;28.20;;
77495;SDS011;66600;48.378;9.948;2023-10-19T02:15:35;47.05;;;29.42;;
77495;SDS011;66600;48.378;9.948;2023-10-19T02:16:06;49.33;;;30.73;;
77495;SDS011;66600;48.378;9.948;2023-10-19T02:16:36;46.53;;;30.23;;
77495;SDS011;66600;48.378;9.948;2023-10-19T02:17:08;47.20;;;30.10;;
77495;SDS011;66600;48.378;9.948;2023-10-19T02:17:39;46.20;;;30.35;;
77495;SDS011;66600;48.378;9.948;2023-10-19T02:18:10;41.78;;;28.23;;
77495;SDS011;66600;48.378;9.948;2023-10-19T02:18:41;45.88;;;29.17;;
77495;SDS011;66600;48.378;9.948;2023-10-19T02:19:12;45.55;;;28.83;;
77495;SDS011;66600;48.378;9.948;2023-10-19T02:19:43;44.78;;;29.13;;
77495;SDS011;66600;48.378;9.948;2023-10-19T02:20:13;46.47;;;29.42;;
77495;SDS011;66600;48.378;9.948;2023-10-19T02:20:47;49.00;;;29.73;;
77495;SDS011;66600;48.378;9.948;2023-10-19T02:21:18;46.75;;;30.02;;
77495;SDS011;66600;48.378;9.948;2023-10-19T02:21:53;44.40;;;29.40;;
77495;SDS011;66600;48.378;9.948;2023-10-19T02:22:26;47.92;;;30.27;;
77495;SDS011;66600;48.378;9.948;2023-10-19T02:22:56;44.90;;;28.08;;
77495;SDS011;66600;48.378;9.948;2023-10-19T02:23:27;45.45;;;29.65;;
77495;SDS011;66600;48.378;9.948;2023-10-19T02:23:57;43.95;;;28.38;;
77495;SDS011;66600;48.378;9.948;2023-10-19T02:24:28;44.03;;;28.38;;
77495;SDS011;66600;48.378;9.948;2023-10-19T02:24:58;45.72;;;30.95;;
77495;SDS011;66600;48.378;9.948;2023-10-19T02:25:28;41.17;;;28.05;;
77495;SDS011;66600;48.378;9.948;2023-10-19T02:26:01;40.47;;;27.52;;
77495;SDS011;66600;48.378;9.948;2023-10-19T02:26:33;41.83;;;28.25;;
77495;SDS011;66600;48.378;9.948;2023-10-19T02:27:04;44.50;;;28.88;;
77495;SDS011;66600;48.378;9.948;2023-10-19T02:27:35;43.08;;;28.88;;
77495;SDS011;66600;48.378;9.948;2023-10-19T02:28:05;43.60;;;28.95;;
77495;SDS011;66600;48.378;9.948;2023-10-19T02:28:39;43.42;;;28.73;;
77495;SDS011;66600;48.378;9.948;2023-10-19T02:29:10;42.08;;;26.90;;
77495;SDS011;66600;48.378;9.948;2023-10-19T02:29:40;39.92;;;27.55;;
77495;SDS011;66600;48.378;9.948;2023-10-19T02:30:12;42.85;;;28.40;;
77495;SDS011;66600;48.378;9.948;2023-10-19T02:30:43;45.13;;;28.27;;
77495;SDS011;66600;48.378;9.948;2023-10-19T02:31:14;41.22;;;28.67;;
77495;SDS011;66600;48.378;9.948;2023-10-19T02:31:45;43.72;;;28.05;;
77495;SDS011;66600;48.378;9.948;2023-10-19T02:32:17;43.83;;;29.05;;
77495;SDS011;66600;48.378;9.948;2023-10-19T02:32:49;39.75;;;26.83;;
77495;SDS011;66600;48.378;9.948;2023-10-19T02:33:19;38.60;;;26.52;;
77495;SDS011;66600;48.378;9.948;2023-10-19T02:33:50;43.08;;;28.35;;
77495;SDS011;66600;48.378;9.948;2023-10-19T02:34:30;39.33;;;27.23;;
77495;SDS011;66600;48.378;9.948;2023-10-19T02:35:01;43.13;;;27.33;;
77495;SDS011;66600;48.378;9.948;2023-10-19T02:35:32;40.40;;;28.05;;
77495;SDS011;66600;48.378;9.948;2023-10-19T02:36:05;40.63;;;27.75;;
77495;SDS011;66600;48.378;9.948;2023-10-19T02:36:43;42.50;;;28.65;;
77495;SDS011;66600;48.378;9.948;2023-10-19T02:37:14;43.72;;;28.30;;
77495;SDS011;66600;48.378;9.948;2023-10-19T02:37:46;44.95;;;29.17;;
77495;SDS011;66600;48.378;9.948;2023-10-19T02:38:17;45.13;;;29.10;;
77495;SDS011;66600;48.378;9.948;2023-10-19T02:38:47;42.75;;;28.77;;
77495;SDS011;66600;48.378;9.948;2023-10-19T02:39:21;46.40;;;30.05;;
77495;SDS011;66600;48.378;9.948;2023-10-19T02:39:58;43.78;;;29.35;;
77495;SDS011;66600;48.378;9.948;2023-10-19T02:40:29;45.03;;;28.23;;
77495;SDS011;66600;48.378;9.948;2023-10-19T02:41:01;45.97;;;28.13;;
77495;SDS011;66600;48.378;9.948;2023-10-19T02:41:33;44.95;;;29.63;;
77495;SDS011;66600;48.378;9.948;2023-10-19T02:42:11;45.40;;;29.65;;
77495;SDS011;66600;48.378;9.948;2023-10-19T02:42:42;44.65;;;29.45;;
77495;SDS011;66600;48.378;9.948;2023-10-19T02:43:12;44.55;;;29.15;;
77495;SDS011;66600;48.378;9.948;2023-10-19T02:43:43;44.45;;;29.15;;
77495;SDS011;66600;48.378;9.948;2023-10-19T02:44:18;44.95;;;29.58;;
77495;SDS011;66600;48.378;9.948;2023-10-19T02:44:49;45.58;;;29.45;;
77495;SDS011;66600;48.378;9.948;2023-10-19T02:45:20;46.53;;;29.75;;
77495;SDS011;66600;48.378;9.948;2023-10-19T02:45:51;47.40;;;30.08;;
77495;SDS011;66600;48.378;9.948;2023-10-19T02:46:21;46.85;;;30.15;;
77495;SDS011;66600;48.378;9.948;2023-10-19T02:46:54;47.95;;;28.95;;
77495;SDS011;66600;48.378;9.948;2023-10-19T02:47:38;44.15;;;29.83;;
77495;SDS011;66600;48.378;9.948;2023-10-19T02:48:11;49.70;;;31.20;;
77495;SDS011;66600;48.378;9.948;2023-10-19T02:48:43;46.83;;;30.42;;
77495;SDS011;66600;48.378;9.948;2023-10-19T02:49:14;47.53;;;30.85;;
77495;SDS011;66600;48.378;9.948;2023-10-19T02:49:48;49.15;;;31.55;;
77495;SDS011;66600;48.378;9.948;2023-10-19T02:50:25;48.00;;;30.65;;
77495;SDS011;66600;48.378;9.948;2023-10-19T02:50:56;50.72;;;30.73;;
77495;SDS011;66600;48.378;9.948;2023-10-19T02:51:36;51.42;;;32.20;;
77495;SDS011;66600;48.378;9.948;2023-10-19T02:52:06;49.70;;;31.35;;
77495;SDS011;66600;48.378;9.948;2023-10-19T02:52:37;53.70;;;32.55;;
77495;SDS011;66600;48.378;9.948;2023-10-19T02:53:07;53.00;;;33.80;;
77495;SDS011;66600;48.378;9.948;2023-10-19T02:53:42;49.42;;;31.45;;
77495;SDS011;66600;48.378;9.948;2023-10-19T02:54:13;49.42;;;30.38;;
77495;SDS011;66600;48.378;9.948;2023-10-19T02:54:54;51.75;;;32.50;;
77495;SDS011;66600;48.378;9.948;2023-10-19T02:55:27;48.80;;;31.92;;
77495;SDS011;66600;48.378;9.948;2023-10-19T02:55:57;47.92;;;31.25;;
77495;SDS011;66600;48.378;9.948;2023-10-19T02:56:31;53.65;;;32.28;;
77495;SDS011;66600;48.378;9.948;2023-10-19T02:57:02;54.13;;;32.83;;
77495;SDS011;66600;48.378;9.948;2023-10-19T02:57:36;49.35;;;31.88;;
77495;SDS011;66600;48.378;9.948;2023-10-19T02:58:07;50.33;;;31.42;;
77495;SDS011;66600;48.378;9.948;2023-10-19T02:58:40;49.70;;;30.80;;
77495;SDS011;66600;48.378;9.948;2023-10-19T02:59:12;50.08;;;31.00;;
77495;SDS011;66600;48.378;9.948;2023-10-19T02:59:45;53.33;;;33.45;;
77495;SDS011;66600;48.378;9.948;2023-10-19T03:00:17;50.40;;;32.20;;
77495;SDS011;66600;48.378;9.948;2023-10-19T03:00:50;53.28;;;32.65;;
77495;SDS011;66600;48.378;9.948;2023-10-19T03:01:22;53.88;;;33.30;;
77495;SDS011;66600;48.378;9.948;2023-10-19T03:01:53;52.33;;;32.05;;
77495;SDS011;66600;48.378;9.948;2023-10-19T03:02:31;53.58;;;33.40;;
77495;SDS011;66600;48.378;9.948;2023-10-19T03:03:01;52.10;;;32.28;;
77495;SDS011;66600;48.378;9.948;2023-10-19T03:03:35;51.92;;;31.25;;
77495;SDS011;66600;48.378;9.948;2023-10-19T03:04:05;52.80;;;32.45;;
77495;SDS011;66600;48.378;9.948;2023-10-19T03:04:35;46.80;;;30.75;;
77495;SDS011;66600;48.378;9.948;2023-10-19T03:05:06;49.28;;;31.00;;
77495;SDS011;66600;48.378;9.948;2023-10-19T03:05:44;46.22;;;30.00;;
77495;SDS011;66600;48.378;9.948;2023-10-19T03:06:19;46.50;;;29.52;;
77495;SDS011;66600;48.378;9.948;2023-10-19T03:06:53;47.53;;;29.27;;
77495;SDS011;66600;48.378;9.948;2023-10-19T03:07:26;48.67;;;30.40;;
77495;SDS011;66600;48.378;9.948;2023-10-19T03:07:56;47.22;;;30.50;;
77495;SDS011;66600;48.378;9.948;2023-10-19T03:08:26;48.10;;;30.17;;
77495;SDS011;66600;48.378;9.948;2023-10-19T03:08:57;51.15;;;30.20;;
77495;SDS011;66600;48.378;9.948;2023-10-19T03:09:27;46.78;;;30.17;;
77495;SDS011;66600;48.378;9.948;2023-10-19T03:09:58;44.55;;;30.05;;
77495;SDS011;66600;48.378;9.948;2023-10-19T03:10:31;47.67;;;30.08;;
77495;SDS011;66600;48.378;9.948;2023-10-19T03:11:12;45.70;;;28.65;;
77495;SDS011;66600;48.378;9.948;2023-10-19T03:11:44;46.97;;;29.63;;
77495;SDS011;66600;48.378;9.948;2023-10-19T03:12:15;49.17;;;30.35;;
77495;SDS011;66600;48.378;9.948;2023-10-19T03:12:47;43.03;;;28.77;;
77495;SDS011;66600;48.378;9.948;2023-10-19T03:13:17;47.50;;;30.45;;
77495;SDS011;66600;48.378;9.948;2023-10-19T03:13:47;45.58;;;30.33;;
77495;SDS011;66600;48.378;9.948;2023-10-19T03:14:20;44.83;;;29.17;;
77495;SDS011;66600;48.378;9.948;2023-10-19T03:14:50;47.22;;;30.02;;
77495;SDS011;66600;48.378;9.948;2023-10-19T03:15:20;47.25;;;29.80;;
77495;SDS011;66600;48.378;9.948;2023-10-19T03:15:51;48.75;;;30.45;;
77495;SDS011;66600;48.378;9.948;2023-10-19T03:16:23;48.88;;;30.38;;
77495;SDS011;66600;48.378;9.948;2023-10-19T03:16:54;46.78;;;30.38;;
77495;SDS011;66600;48.378;9.948;2023-10-19T03:17:25;46.50;;;29.33;;
77495;SDS011;66600;48.378;9.948;2023-10-19T03:17:58;46.83;;;29.42;;